sensor_id;sensor_type;location;lat;lon;timestamp;temperature;humidity
1996;DHT22;38556;47.068;15.408;2023-05-07T00:02:09;16.70;99.90
1996;DHT22;38556;47.068;15.408;2023-05-07T00:04:37;16.60;99.90
1996;DHT22;38556;47.068;15.408;2023-05-07T00:07:04;16.50;99.90
1996;DHT22;38556;47.068;15.408;2023-05-07T00:09:32;16.50;99.90
1996;DHT22;38556;47.068;15.408;2023-05-07T00:11:59;16.50;99.90
1996;DHT22;38556;47.068;15.408;2023-05-07T00:14:27;16.40;99.90
1996;DHT22;38556;47.068;15.408;2023-05-07T00:16:54;16.60;99.90
1996;DHT22;38556;47.068;15.408;2023-05-07T00:19:23;16.70;99.90
1996;DHT22;38556;47.068;15.408;2023-05-07T00:21:50;16.80;99.90
1996;DHT22;38556;47.068;15.408;2023-05-07T00:24:19;16.80;99.90
1996;DHT22;38556;47.068;15.408;2023-05-07T00:26:46;16.50;99.90
1996;DHT22;38556;47.068;15.408;2023-05-07T00:29:13;16.50;99.90
1996;DHT22;38556;47.068;15.408;2023-05-07T00:31:41;16.50;99.90
1996;DHT22;38556;47.068;15.408;2023-05-07T00:34:08;16.40;99.90
1996;DHT22;38556;47.068;15.408;2023-05-07T00:36:36;16.60;99.90
1996;DHT22;38556;47.068;15.408;2023-05-07T00:39:05;16.60;99.90
1996;DHT22;38556;47.068;15.408;2023-05-07T00:41:32;16.60;99.90
1996;DHT22;38556;47.068;15.408;2023-05-07T00:44:00;16.60;99.90
1996;DHT22;38556;47.068;15.408;2023-05-07T00:46:28;16.20;99.90
1996;DHT22;38556;47.068;15.408;2023-05-07T00:48:57;16.20;99.90
1996;DHT22;38556;47.068;15.408;2023-05-07T00:51:25;16.20;99.90
1996;DHT22;38556;47.068;15.408;2023-05-07T00:53:54;16.20;99.90
1996;DHT22;38556;47.068;15.408;2023-05-07T00:56:23;16.00;99.90
1996;DHT22;38556;47.068;15.408;2023-05-07T00:58:50;16.00;99.90
1996;DHT22;38556;47.068;15.408;2023-05-07T01:01:18;16.00;99.90
1996;DHT22;38556;47.068;15.408;2023-05-07T01:03:45;16.10;99.90
1996;DHT22;38556;47.068;15.408;2023-05-07T01:06:13;15.90;99.90
1996;DHT22;38556;47.068;15.408;2023-05-07T01:08:43;15.60;99.90
1996;DHT22;38556;47.068;15.408;2023-05-07T01:11:12;15.60;99.90
1996;DHT22;38556;47.068;15.408;2023-05-07T01:13:40;15.60;99.90
1996;DHT22;38556;47.068;15.408;2023-05-07T01:16:09;15.80;99.90
1996;DHT22;38556;47.068;15.408;2023-05-07T01:18:37;16.00;99.90
1996;DHT22;38556;47.068;15.408;2023-05-07T01:21:05;16.20;99.90
1996;DHT22;38556;47.068;15.408;2023-05-07T01:23:34;16.40;99.90
1996;DHT22;38556;47.068;15.408;2023-05-07T01:26:02;16.40;99.90
1996;DHT22;38556;47.068;15.408;2023-05-07T01:28:29;16.50;99.90
1996;DHT22;38556;47.068;15.408;2023-05-07T01:31:03;16.50;99.90
1996;DHT22;38556;47.068;15.408;2023-05-07T01:33:34;16.60;99.90
1996;DHT22;38556;47.068;15.408;2023-05-07T01:36:03;16.60;99.90
1996;DHT22;38556;47.068;15.408;2023-05-07T01:38:34;16.60;99.90
1996;DHT22;38556;47.068;15.408;2023-05-07T01:41:02;16.60;99.90
1996;DHT22;38556;47.068;15.408;2023-05-07T01:43:30;16.60;99.90
1996;DHT22;38556;47.068;15.408;2023-05-07T01:45:58;16.70;99.90
1996;DHT22;38556;47.068;15.408;2023-05-07T01:48:26;16.70;99.90
1996;DHT22;38556;47.068;15.408;2023-05-07T01:50:53;16.70;99.90
1996;DHT22;38556;47.068;15.408;2023-05-07T01:53:20;16.70;99.90
1996;DHT22;38556;47.068;15.408;2023-05-07T01:55:49;16.70;99.90
1996;DHT22;38556;47.068;15.408;2023-05-07T01:58:16;16.70;99.90
1996;DHT22;38556;47.068;15.408;2023-05-07T02:00:44;16.70;99.90
1996;DHT22;38556;47.068;15.408;2023-05-07T02:03:11;16.70;99.90
1996;DHT22;38556;47.068;15.408;2023-05-07T02:05:38;16.70;99.90
1996;DHT22;38556;47.068;15.408;2023-05-07T02:08:05;16.70;99.90
1996;DHT22;38556;47.068;15.408;2023-05-07T02:10:33;16.70;99.90
1996;DHT22;38556;47.068;15.408;2023-05-07T02:13:01;16.70;99.90
1996;DHT22;38556;47.068;15.408;2023-05-07T02:15:29;16.70;99.90
1996;DHT22;38556;47.068;15.408;2023-05-07T02:18:00;16.70;99.90
1996;DHT22;38556;47.068;15.408;2023-05-07T02:20:27;16.70;99.90
1996;DHT22;38556;47.068;15.408;2023-05-07T02:22:55;16.70;99.90
1996;DHT22;38556;47.068;15.408;2023-05-07T02:25:22;16.70;99.90
1996;DHT22;38556;47.068;15.408;2023-05-07T02:27:50;16.60;99.90
1996;DHT22;38556;47.068;15.408;2023-05-07T02:30:18;16.60;99.90
1996;DHT22;38556;47.068;15.408;2023-05-07T02:32:47;16.50;99.90
1996;DHT22;38556;47.068;15.408;2023-05-07T02:35:14;16.40;99.90
1996;DHT22;38556;47.068;15.408;2023-05-07T02:37:42;16.40;99.90
1996;DHT22;38556;47.068;15.408;2023-05-07T02:40:10;16.40;99.90
1996;DHT22;38556;47.068;15.408;2023-05-07T02:42:38;16.50;99.90
1996;DHT22;38556;47.068;15.408;2023-05-07T02:45:06;16.50;99.90
1996;DHT22;38556;47.068;15.408;2023-05-07T02:47:35;16.40;99.90
1996;DHT22;38556;47.068;15.408;2023-05-07T02:50:02;16.30;99.90
1996;DHT22;38556;47.068;15.408;2023-05-07T02:52:31;16.20;99.90
1996;DHT22;38556;47.068;15.408;2023-05-07T02:54:58;16.20;99.90
1996;DHT22;38556;47.068;15.408;2023-05-07T02:57:26;16.20;99.90
1996;DHT22;38556;47.068;15.408;2023-05-07T02:59:53;16.20;99.90
1996;DHT22;38556;47.068;15.408;2023-05-07T03:02:20;16.20;99.90
1996;DHT22;38556;47.068;15.408;2023-05-07T03:04:49;16.20;99.90
1996;DHT22;38556;47.068;15.408;2023-05-07T03:07:17;16.20;99.90
1996;DHT22;38556;47.068;15.408;2023-05-07T03:09:45;16.20;99.90
1996;DHT22;38556;47.068;15.408;2023-05-07T03:12:11;16.20;99.90
1996;DHT22;38556;47.068;15.408;2023-05-07T03:14:39;16.20;99.90
1996;DHT22;38556;47.068;15.408;2023-05-07T03:17:06;16.20;99.90
1996;DHT22;38556;47.068;15.408;2023-05-07T03:19:34;16.20;99.90
1996;DHT22;38556;47.068;15.408;2023-05-07T03:22:02;16.20;99.90
1996;DHT22;38556;47.068;15.408;2023-05-07T03:24:30;16.30;99.90
1996;DHT22;38556;47.068;15.408;2023-05-07T03:26:57;16.10;99.90
1996;DHT22;38556;47.068;15.408;2023-05-07T03:29:24;16.10;99.90
1996;DHT22;38556;47.068;15.408;2023-05-07T03:31:51;16.10;99.90
1996;DHT22;38556;47.068;15.408;2023-05-07T03:34:19;16.10;99.90
1996;DHT22;38556;47.068;15.408;2023-05-07T03:36:47;16.00;99.90
1996;DHT22;38556;47.068;15.408;2023-05-07T03:39:16;16.00;99.90
1996;DHT22;38556;47.068;15.408;2023-05-07T03:41:43;16.00;99.90
1996;DHT22;38556;47.068;15.408;2023-05-07T03:44:10;16.00;99.90
1996;DHT22;38556;47.068;15.408;2023-05-07T03:46:38;15.90;99.90
1996;DHT22;38556;47.068;15.408;2023-05-07T03:49:05;15.90;99.90
1996;DHT22;38556;47.068;15.408;2023-05-07T03:51:32;15.90;99.90
1996;DHT22;38556;47.068;15.408;2023-05-07T03:54:01;15.90;99.90
1996;DHT22;38556;47.068;15.408;2023-05-07T03:56:30;15.80;99.90
1996;DHT22;38556;47.068;15.408;2023-05-07T03:58:57;15.80;99.90
1996;DHT22;38556;47.068;15.408;2023-05-07T04:01:24;15.80;99.90
1996;DHT22;38556;47.068;15.408;2023-05-07T04:03:52;15.80;99.90
1996;DHT22;38556;47.068;15.408;2023-05-07T04:06:19;15.80;99.90
1996;DHT22;38556;47.068;15.408;2023-05-07T04:08:46;15.80;99.90
1996;DHT22;38556;47.068;15.408;2023-05-07T04:11:14;15.80;99.90
1996;DHT22;38556;47.068;15.408;2023-05-07T04:13:42;15.80;99.90
1996;DHT22;38556;47.068;15.408;2023-05-07T04:16:09;15.80;99.90
1996;DHT22;38556;47.068;15.408;2023-05-07T04:18:36;15.80;99.90
1996;DHT22;38556;47.068;15.408;2023-05-07T04:21:04;15.80;99.90
1996;DHT22;38556;47.068;15.408;2023-05-07T04:23:31;15.90;99.90
1996;DHT22;38556;47.068;15.408;2023-05-07T04:25:58;15.90;99.90
1996;DHT22;38556;47.068;15.408;2023-05-07T04:28:26;15.90;99.90
1996;DHT22;38556;47.068;15.408;2023-05-07T04:30:55;15.90;99.90
1996;DHT22;38556;47.068;15.408;2023-05-07T04:33:22;15.90;99.90
1996;DHT22;38556;47.068;15.408;2023-05-07T04:35:49;15.90;99.90
1996;DHT22;38556;47.068;15.408;2023-05-07T04:38:17;16.00;99.90
1996;DHT22;38556;47.068;15.408;2023-05-07T04:40:44;16.00;99.90
1996;DHT22;38556;47.068;15.408;2023-05-07T04:43:13;15.90;99.90
1996;DHT22;38556;47.068;15.408;2023-05-07T04:45:40;15.60;99.90
1996;DHT22;38556;47.068;15.408;2023-05-07T04:48:09;15.70;99.90
1996;DHT22;38556;47.068;15.408;2023-05-07T04:50:36;15.70;99.90
1996;DHT22;38556;47.068;15.408;2023-05-07T04:53:04;15.70;99.90
1996;DHT22;38556;47.068;15.408;2023-05-07T04:55:30;15.80;99.90
1996;DHT22;38556;47.068;15.408;2023-05-07T04:57:58;15.90;99.90
1996;DHT22;38556;47.068;15.408;2023-05-07T05:00:27;15.90;99.90
1996;DHT22;38556;47.068;15.408;2023-05-07T05:02:54;16.00;99.90
1996;DHT22;38556;47.068;15.408;2023-05-07T05:05:22;16.10;99.90
1996;DHT22;38556;47.068;15.408;2023-05-07T05:07:49;16.20;99.90
1996;DHT22;38556;47.068;15.408;2023-05-07T05:10:17;16.20;99.90
1996;DHT22;38556;47.068;15.408;2023-05-07T05:12:45;16.30;99.90
1996;DHT22;38556;47.068;15.408;2023-05-07T05:15:12;16.40;99.90
1996;DHT22;38556;47.068;15.408;2023-05-07T05:17:39;16.40;99.90
1996;DHT22;38556;47.068;15.408;2023-05-07T05:20:07;16.40;99.90
1996;DHT22;38556;47.068;15.408;2023-05-07T05:22:37;16.50;99.90
1996;DHT22;38556;47.068;15.408;2023-05-07T05:25:05;16.50;99.90
1996;DHT22;38556;47.068;15.408;2023-05-07T05:27:32;16.50;99.90
1996;DHT22;38556;47.068;15.408;2023-05-07T05:29:59;16.50;99.90
1996;DHT22;38556;47.068;15.408;2023-05-07T05:32:26;16.40;99.90
1996;DHT22;38556;47.068;15.408;2023-05-07T05:34:54;16.40;99.90
1996;DHT22;38556;47.068;15.408;2023-05-07T05:37:21;16.30;99.90
1996;DHT22;38556;47.068;15.408;2023-05-07T05:39:50;16.30;99.90
1996;DHT22;38556;47.068;15.408;2023-05-07T05:42:17;16.20;99.90
1996;DHT22;38556;47.068;15.408;2023-05-07T05:44:44;16.20;99.90
1996;DHT22;38556;47.068;15.408;2023-05-07T05:47:11;16.10;99.90
1996;DHT22;38556;47.068;15.408;2023-05-07T05:49:38;16.10;99.90
1996;DHT22;38556;47.068;15.408;2023-05-07T05:52:06;16.20;99.90
1996;DHT22;38556;47.068;15.408;2023-05-07T05:54:33;16.40;99.90
1996;DHT22;38556;47.068;15.408;2023-05-07T05:57:02;16.40;99.90
1996;DHT22;38556;47.068;15.408;2023-05-07T05:59:29;16.40;99.90
1996;DHT22;38556;47.068;15.408;2023-05-07T06:01:57;16.40;99.90
1996;DHT22;38556;47.068;15.408;2023-05-07T06:04:24;16.40;99.90
1996;DHT22;38556;47.068;15.408;2023-05-07T06:06:51;16.40;99.90
1996;DHT22;38556;47.068;15.408;2023-05-07T06:09:18;16.40;99.90
1996;DHT22;38556;47.068;15.408;2023-05-07T06:11:45;16.50;99.90
1996;DHT22;38556;47.068;15.408;2023-05-07T06:14:14;16.50;99.90
1996;DHT22;38556;47.068;15.408;2023-05-07T06:16:41;16.40;99.90
1996;DHT22;38556;47.068;15.408;2023-05-07T06:19:08;16.40;99.90
1996;DHT22;38556;47.068;15.408;2023-05-07T06:21:36;16.40;99.90
1996;DHT22;38556;47.068;15.408;2023-05-07T06:24:03;16.20;99.90
1996;DHT22;38556;47.068;15.408;2023-05-07T06:26:30;16.10;99.90
1996;DHT22;38556;47.068;15.408;2023-05-07T06:28:58;16.20;99.90
1996;DHT22;38556;47.068;15.408;2023-05-07T06:31:29;16.40;99.90
1996;DHT22;38556;47.068;15.408;2023-05-07T06:33:58;16.60;99.90
1996;DHT22;38556;47.068;15.408;2023-05-07T06:36:25;16.70;99.90
1996;DHT22;38556;47.068;15.408;2023-05-07T06:38:53;17.00;99.90
1996;DHT22;38556;47.068;15.408;2023-05-07T06:41:20;17.00;99.90
1996;DHT22;38556;47.068;15.408;2023-05-07T06:43:47;17.30;99.90
1996;DHT22;38556;47.068;15.408;2023-05-07T06:46:15;17.40;99.90
1996;DHT22;38556;47.068;15.408;2023-05-07T06:48:43;17.60;99.90
1996;DHT22;38556;47.068;15.408;2023-05-07T06:51:11;17.70;99.90
1996;DHT22;38556;47.068;15.408;2023-05-07T06:53:38;17.90;99.90
1996;DHT22;38556;47.068;15.408;2023-05-07T06:56:06;17.80;99.90
1996;DHT22;38556;47.068;15.408;2023-05-07T06:58:33;17.80;99.90
1996;DHT22;38556;47.068;15.408;2023-05-07T07:01:00;18.00;99.90
1996;DHT22;38556;47.068;15.408;2023-05-07T07:03:28;18.20;99.90
1996;DHT22;38556;47.068;15.408;2023-05-07T07:05:56;18.40;99.90
1996;DHT22;38556;47.068;15.408;2023-05-07T07:08:24;18.30;99.90
1996;DHT22;38556;47.068;15.408;2023-05-07T07:10:51;18.00;99.90
1996;DHT22;38556;47.068;15.408;2023-05-07T07:13:18;18.20;99.90
1996;DHT22;38556;47.068;15.408;2023-05-07T07:15:45;18.50;99.90
1996;DHT22;38556;47.068;15.408;2023-05-07T07:18:12;18.70;99.90
1996;DHT22;38556;47.068;15.408;2023-05-07T07:20:40;18.80;99.90
1996;DHT22;38556;47.068;15.408;2023-05-07T07:23:08;19.00;99.90
1996;DHT22;38556;47.068;15.408;2023-05-07T07:25:36;19.20;99.90
1996;DHT22;38556;47.068;15.408;2023-05-07T07:28:03;19.30;99.90
1996;DHT22;38556;47.068;15.408;2023-05-07T07:30:31;19.50;99.90
1996;DHT22;38556;47.068;15.408;2023-05-07T07:32:58;19.60;99.90
1996;DHT22;38556;47.068;15.408;2023-05-07T07:35:28;19.70;99.90
1996;DHT22;38556;47.068;15.408;2023-05-07T07:37:55;19.80;99.90
1996;DHT22;38556;47.068;15.408;2023-05-07T07:40:25;19.80;99.90
1996;DHT22;38556;47.068;15.408;2023-05-07T07:42:52;19.90;99.90
1996;DHT22;38556;47.068;15.408;2023-05-07T07:45:20;20.10;99.90
1996;DHT22;38556;47.068;15.408;2023-05-07T07:47:47;20.10;99.90
1996;DHT22;38556;47.068;15.408;2023-05-07T07:50:14;20.20;99.90
1996;DHT22;38556;47.068;15.408;2023-05-07T07:52:41;20.30;99.90
1996;DHT22;38556;47.068;15.408;2023-05-07T07:55:09;20.30;99.90
1996;DHT22;38556;47.068;15.408;2023-05-07T07:57:38;20.40;99.90
1996;DHT22;38556;47.068;15.408;2023-05-07T08:00:06;20.50;99.90
1996;DHT22;38556;47.068;15.408;2023-05-07T08:02:34;20.20;99.90
1996;DHT22;38556;47.068;15.408;2023-05-07T08:05:01;20.30;99.90
1996;DHT22;38556;47.068;15.408;2023-05-07T08:07:28;20.80;99.90
1996;DHT22;38556;47.068;15.408;2023-05-07T08:09:55;20.90;99.90
1996;DHT22;38556;47.068;15.408;2023-05-07T08:12:23;21.10;99.90
1996;DHT22;38556;47.068;15.408;2023-05-07T08:14:52;21.20;99.90
1996;DHT22;38556;47.068;15.408;2023-05-07T08:17:20;21.40;99.90
1996;DHT22;38556;47.068;15.408;2023-05-07T08:19:47;21.60;99.90
1996;DHT22;38556;47.068;15.408;2023-05-07T08:22:15;21.80;99.90
1996;DHT22;38556;47.068;15.408;2023-05-07T08:24:44;21.90;99.90
1996;DHT22;38556;47.068;15.408;2023-05-07T08:27:12;22.00;99.90
1996;DHT22;38556;47.068;15.408;2023-05-07T08:29:38;22.10;99.90
1996;DHT22;38556;47.068;15.408;2023-05-07T08:32:07;22.20;99.90
1996;DHT22;38556;47.068;15.408;2023-05-07T08:34:34;22.20;99.90
1996;DHT22;38556;47.068;15.408;2023-05-07T08:37:02;22.30;99.90
1996;DHT22;38556;47.068;15.408;2023-05-07T08:39:29;22.40;99.90
1996;DHT22;38556;47.068;15.408;2023-05-07T08:42:00;22.40;99.90
1996;DHT22;38556;47.068;15.408;2023-05-07T08:44:28;22.50;99.90
1996;DHT22;38556;47.068;15.408;2023-05-07T08:46:58;22.50;99.90
1996;DHT22;38556;47.068;15.408;2023-05-07T08:49:29;22.50;99.90
1996;DHT22;38556;47.068;15.408;2023-05-07T08:51:56;22.60;99.90
1996;DHT22;38556;47.068;15.408;2023-05-07T08:54:24;22.60;99.90
1996;DHT22;38556;47.068;15.408;2023-05-07T08:56:52;22.70;99.90
1996;DHT22;38556;47.068;15.408;2023-05-07T08:59:19;22.80;99.90
1996;DHT22;38556;47.068;15.408;2023-05-07T09:01:47;22.80;99.90
1996;DHT22;38556;47.068;15.408;2023-05-07T09:04:14;22.90;99.90
1996;DHT22;38556;47.068;15.408;2023-05-07T09:06:43;22.90;99.90
1996;DHT22;38556;47.068;15.408;2023-05-07T09:09:10;22.90;99.90
1996;DHT22;38556;47.068;15.408;2023-05-07T09:11:41;23.00;99.90
1996;DHT22;38556;47.068;15.408;2023-05-07T09:14:08;23.00;99.90
1996;DHT22;38556;47.068;15.408;2023-05-07T09:16:36;23.10;99.90
1996;DHT22;38556;47.068;15.408;2023-05-07T09:19:02;23.00;99.40
1996;DHT22;38556;47.068;15.408;2023-05-07T09:21:30;23.00;99.40
1996;DHT22;38556;47.068;15.408;2023-05-07T09:23:58;22.90;98.90
1996;DHT22;38556;47.068;15.408;2023-05-07T09:26:26;22.80;99.00
1996;DHT22;38556;47.068;15.408;2023-05-07T09:28:54;22.80;98.80
1996;DHT22;38556;47.068;15.408;2023-05-07T09:31:21;22.90;98.90
1996;DHT22;38556;47.068;15.408;2023-05-07T09:33:52;22.90;98.90
1996;DHT22;38556;47.068;15.408;2023-05-07T09:36:21;23.00;98.60
1996;DHT22;38556;47.068;15.408;2023-05-07T09:38:49;23.10;98.60
1996;DHT22;38556;47.068;15.408;2023-05-07T09:41:18;23.20;98.70
1996;DHT22;38556;47.068;15.408;2023-05-07T09:43:53;23.10;98.40
1996;DHT22;38556;47.068;15.408;2023-05-07T09:46:30;23.10;97.90
1996;DHT22;38556;47.068;15.408;2023-05-07T09:48:58;23.10;98.10
1996;DHT22;38556;47.068;15.408;2023-05-07T09:51:29;23.10;97.90
1996;DHT22;38556;47.068;15.408;2023-05-07T09:53:58;22.70;98.10
1996;DHT22;38556;47.068;15.408;2023-05-07T09:56:30;22.70;97.70
1996;DHT22;38556;47.068;15.408;2023-05-07T09:59:00;22.80;98.20
1996;DHT22;38556;47.068;15.408;2023-05-07T10:01:27;22.90;98.30
1996;DHT22;38556;47.068;15.408;2023-05-07T10:03:56;23.10;98.60
1996;DHT22;38556;47.068;15.408;2023-05-07T10:06:24;23.20;98.10
1996;DHT22;38556;47.068;15.408;2023-05-07T10:08:53;23.20;97.90
1996;DHT22;38556;47.068;15.408;2023-05-07T10:11:22;23.30;97.90
1996;DHT22;38556;47.068;15.408;2023-05-07T10:13:52;23.20;97.10
1996;DHT22;38556;47.068;15.408;2023-05-07T10:18:49;23.20;97.30
1996;DHT22;38556;47.068;15.408;2023-05-07T10:21:18;22.80;96.50
1996;DHT22;38556;47.068;15.408;2023-05-07T10:23:49;22.80;97.30
1996;DHT22;38556;47.068;15.408;2023-05-07T10:26:18;22.80;96.80
1996;DHT22;38556;47.068;15.408;2023-05-07T10:28:50;22.90;96.80
1996;DHT22;38556;47.068;15.408;2023-05-07T10:31:32;23.10;96.60
1996;DHT22;38556;47.068;15.408;2023-05-07T10:34:08;23.10;96.90
1996;DHT22;38556;47.068;15.408;2023-05-07T10:36:36;22.80;96.60
1996;DHT22;38556;47.068;15.408;2023-05-07T10:39:05;22.70;96.60
1996;DHT22;38556;47.068;15.408;2023-05-07T10:41:32;22.90;96.60
1996;DHT22;38556;47.068;15.408;2023-05-07T10:44:01;23.00;96.20
1996;DHT22;38556;47.068;15.408;2023-05-07T10:46:29;23.00;96.10
1996;DHT22;38556;47.068;15.408;2023-05-07T10:49:12;22.80;96.10
1996;DHT22;38556;47.068;15.408;2023-05-07T10:51:39;22.70;95.60
1996;DHT22;38556;47.068;15.408;2023-05-07T10:54:21;22.70;95.50
1996;DHT22;38556;47.068;15.408;2023-05-07T10:56:48;22.80;95.40
1996;DHT22;38556;47.068;15.408;2023-05-07T10:59:37;22.90;94.90
1996;DHT22;38556;47.068;15.408;2023-05-07T11:02:12;22.90;95.70
1996;DHT22;38556;47.068;15.408;2023-05-07T11:04:41;22.80;95.40
1996;DHT22;38556;47.068;15.408;2023-05-07T11:07:27;22.70;95.00
1996;DHT22;38556;47.068;15.408;2023-05-07T11:09:57;22.60;94.80
1996;DHT22;38556;47.068;15.408;2023-05-07T11:15:42;22.80;95.30
1996;DHT22;38556;47.068;15.408;2023-05-07T11:18:11;23.00;94.80
1996;DHT22;38556;47.068;15.408;2023-05-07T11:20:54;23.10;94.70
1996;DHT22;38556;47.068;15.408;2023-05-07T11:23:54;23.00;94.40
1996;DHT22;38556;47.068;15.408;2023-05-07T11:26:22;23.10;94.40
1996;DHT22;38556;47.068;15.408;2023-05-07T11:28:49;23.30;94.30
1996;DHT22;38556;47.068;15.408;2023-05-07T11:31:23;27.00;95.80
1996;DHT22;38556;47.068;15.408;2023-05-07T11:33:51;23.10;94.60
1996;DHT22;38556;47.068;15.408;2023-05-07T11:36:20;23.20;94.20
1996;DHT22;38556;47.068;15.408;2023-05-07T11:38:47;23.10;93.80
1996;DHT22;38556;47.068;15.408;2023-05-07T11:41:16;23.30;93.40
1996;DHT22;38556;47.068;15.408;2023-05-07T11:43:55;23.30;93.70
1996;DHT22;38556;47.068;15.408;2023-05-07T11:46:24;23.40;93.40
1996;DHT22;38556;47.068;15.408;2023-05-07T11:48:52;23.40;93.20
1996;DHT22;38556;47.068;15.408;2023-05-07T11:51:19;23.50;92.90
1996;DHT22;38556;47.068;15.408;2023-05-07T11:53:47;23.20;93.10
1996;DHT22;38556;47.068;15.408;2023-05-07T11:56:15;23.30;93.70
1996;DHT22;38556;47.068;15.408;2023-05-07T11:58:44;23.30;94.00
1996;DHT22;38556;47.068;15.408;2023-05-07T12:01:13;23.30;93.90
1996;DHT22;38556;47.068;15.408;2023-05-07T12:03:44;23.50;93.90
1996;DHT22;38556;47.068;15.408;2023-05-07T12:08:41;23.40;92.60
1996;DHT22;38556;47.068;15.408;2023-05-07T12:11:09;23.20;92.40
1996;DHT22;38556;47.068;15.408;2023-05-07T12:13:37;23.30;92.80
1996;DHT22;38556;47.068;15.408;2023-05-07T12:16:06;23.20;93.20
1996;DHT22;38556;47.068;15.408;2023-05-07T12:18:35;23.20;93.00
1996;DHT22;38556;47.068;15.408;2023-05-07T12:21:05;23.40;93.60
1996;DHT22;38556;47.068;15.408;2023-05-07T12:23:33;23.50;94.00
1996;DHT22;38556;47.068;15.408;2023-05-07T12:26:01;23.50;92.70
1996;DHT22;38556;47.068;15.408;2023-05-07T12:28:29;23.60;92.30
1996;DHT22;38556;47.068;15.408;2023-05-07T12:30:57;23.50;93.00
1996;DHT22;38556;47.068;15.408;2023-05-07T12:33:25;23.60;93.20
1996;DHT22;38556;47.068;15.408;2023-05-07T12:35:55;23.60;92.90
1996;DHT22;38556;47.068;15.408;2023-05-07T12:38:23;23.60;92.90
1996;DHT22;38556;47.068;15.408;2023-05-07T12:40:54;23.70;92.90
1996;DHT22;38556;47.068;15.408;2023-05-07T12:43:24;23.40;92.90
1996;DHT22;38556;47.068;15.408;2023-05-07T12:45:54;23.50;92.90
1996;DHT22;38556;47.068;15.408;2023-05-07T12:48:22;23.00;92.50
1996;DHT22;38556;47.068;15.408;2023-05-07T12:50:50;23.00;92.70
1996;DHT22;38556;47.068;15.408;2023-05-07T12:53:20;23.00;92.70
1996;DHT22;38556;47.068;15.408;2023-05-07T12:55:51;23.00;93.10
1996;DHT22;38556;47.068;15.408;2023-05-07T12:58:20;23.00;92.50
1996;DHT22;38556;47.068;15.408;2023-05-07T13:00:49;22.90;92.90
1996;DHT22;38556;47.068;15.408;2023-05-07T13:03:24;22.90;93.20
1996;DHT22;38556;47.068;15.408;2023-05-07T13:05:52;22.80;93.10
1996;DHT22;38556;47.068;15.408;2023-05-07T13:08:27;22.90;93.60
1996;DHT22;38556;47.068;15.408;2023-05-07T13:10:57;22.60;93.70
1996;DHT22;38556;47.068;15.408;2023-05-07T13:13:25;22.30;96.00
1996;DHT22;38556;47.068;15.408;2023-05-07T13:15:53;21.70;97.00
1996;DHT22;38556;47.068;15.408;2023-05-07T13:18:20;20.90;99.90
1996;DHT22;38556;47.068;15.408;2023-05-07T13:20:47;20.60;99.90
1996;DHT22;38556;47.068;15.408;2023-05-07T13:23:14;20.30;99.90
1996;DHT22;38556;47.068;15.408;2023-05-07T13:25:41;20.30;99.90
1996;DHT22;38556;47.068;15.408;2023-05-07T13:28:09;20.50;99.90
1996;DHT22;38556;47.068;15.408;2023-05-07T13:30:37;20.50;99.90
1996;DHT22;38556;47.068;15.408;2023-05-07T13:33:04;20.00;99.90
1996;DHT22;38556;47.068;15.408;2023-05-07T13:35:32;20.10;99.90
1996;DHT22;38556;47.068;15.408;2023-05-07T13:37:59;19.90;99.90
1996;DHT22;38556;47.068;15.408;2023-05-07T13:40:26;19.70;99.90
1996;DHT22;38556;47.068;15.408;2023-05-07T13:42:54;19.80;99.90
1996;DHT22;38556;47.068;15.408;2023-05-07T13:45:23;19.30;99.90
1996;DHT22;38556;47.068;15.408;2023-05-07T13:47:51;19.10;99.90
1996;DHT22;38556;47.068;15.408;2023-05-07T13:50:19;19.10;99.90
1996;DHT22;38556;47.068;15.408;2023-05-07T13:52:46;19.10;99.90
1996;DHT22;38556;47.068;15.408;2023-05-07T13:55:17;18.70;99.90
1996;DHT22;38556;47.068;15.408;2023-05-07T13:57:45;18.80;99.90
1996;DHT22;38556;47.068;15.408;2023-05-07T14:00:13;18.60;99.90
1996;DHT22;38556;47.068;15.408;2023-05-07T14:02:43;18.80;99.90
1996;DHT22;38556;47.068;15.408;2023-05-07T14:05:10;18.70;99.90
1996;DHT22;38556;47.068;15.408;2023-05-07T14:07:39;18.70;99.90
1996;DHT22;38556;47.068;15.408;2023-05-07T14:10:07;18.70;99.90
1996;DHT22;38556;47.068;15.408;2023-05-07T14:12:35;18.70;99.90
1996;DHT22;38556;47.068;15.408;2023-05-07T14:15:03;18.50;99.90
1996;DHT22;38556;47.068;15.408;2023-05-07T14:17:30;18.30;99.90
1996;DHT22;38556;47.068;15.408;2023-05-07T14:19:59;18.20;99.90
1996;DHT22;38556;47.068;15.408;2023-05-07T14:22:26;18.30;99.90
1996;DHT22;38556;47.068;15.408;2023-05-07T14:24:53;18.30;99.90
1996;DHT22;38556;47.068;15.408;2023-05-07T14:27:20;18.30;99.90
1996;DHT22;38556;47.068;15.408;2023-05-07T14:29:47;18.30;99.90
1996;DHT22;38556;47.068;15.408;2023-05-07T14:32:17;18.50;99.90
1996;DHT22;38556;47.068;15.408;2023-05-07T14:34:44;18.60;99.90
1996;DHT22;38556;47.068;15.408;2023-05-07T14:37:13;18.60;99.90
1996;DHT22;38556;47.068;15.408;2023-05-07T14:39:41;18.70;99.90
1996;DHT22;38556;47.068;15.408;2023-05-07T14:42:08;18.70;99.90
1996;DHT22;38556;47.068;15.408;2023-05-07T14:44:36;18.80;99.90
1996;DHT22;38556;47.068;15.408;2023-05-07T14:47:03;18.70;99.90
1996;DHT22;38556;47.068;15.408;2023-05-07T14:49:30;18.70;99.90
1996;DHT22;38556;47.068;15.408;2023-05-07T14:51:58;18.70;99.90
1996;DHT22;38556;47.068;15.408;2023-05-07T14:54:27;18.70;99.90
1996;DHT22;38556;47.068;15.408;2023-05-07T14:56:55;18.70;99.90
1996;DHT22;38556;47.068;15.408;2023-05-07T14:59:22;18.70;99.90
1996;DHT22;38556;47.068;15.408;2023-05-07T15:01:51;18.50;99.90
1996;DHT22;38556;47.068;15.408;2023-05-07T15:04:18;18.50;99.90
1996;DHT22;38556;47.068;15.408;2023-05-07T15:06:46;17.90;99.90
1996;DHT22;38556;47.068;15.408;2023-05-07T15:09:13;17.90;99.90
1996;DHT22;38556;47.068;15.408;2023-05-07T15:11:41;17.80;99.90
1996;DHT22;38556;47.068;15.408;2023-05-07T15:14:09;17.50;99.90
1996;DHT22;38556;47.068;15.408;2023-05-07T15:16:36;18.00;99.90
1996;DHT22;38556;47.068;15.408;2023-05-07T15:19:03;18.00;99.90
1996;DHT22;38556;47.068;15.408;2023-05-07T15:21:30;18.20;99.90
1996;DHT22;38556;47.068;15.408;2023-05-07T15:24:00;18.40;99.90
1996;DHT22;38556;47.068;15.408;2023-05-07T15:26:28;18.60;99.90
1996;DHT22;38556;47.068;15.408;2023-05-07T15:28:57;18.70;99.90
1996;DHT22;38556;47.068;15.408;2023-05-07T15:31:24;18.90;99.90
1996;DHT22;38556;47.068;15.408;2023-05-07T15:33:52;19.10;99.90
1996;DHT22;38556;47.068;15.408;2023-05-07T15:36:20;19.20;99.90
1996;DHT22;38556;47.068;15.408;2023-05-07T15:38:47;19.10;99.90
1996;DHT22;38556;47.068;15.408;2023-05-07T15:41:14;19.30;99.90
1996;DHT22;38556;47.068;15.408;2023-05-07T15:43:45;19.00;99.90
1996;DHT22;38556;47.068;15.408;2023-05-07T15:46:17;19.00;99.90